Terminal Aerodrome Forecast
Issued by NWS San Angelo, TX

Home | Current Version | Previous Version | Text Only | Print | Product List | Glossary On
Versions: 1 2 3 4 5 6 7 8 9 10 11 12 13 14 15 16 17 18 19 20
000
FTUS44 KSJT 171720
TAFABI
TAF
KABI 171720Z 1718/1818 20009KT P6SM SCT050 SCT200
     FM172100 16008KT P6SM VCTS SCT050CB SCT200
     FM180100 16006KT P6SM SCT200=

USA.gov is the U.S. government's official web portal to all federal, state and local government web resources and services.